createdAt,value
2023-04-09T00:01:11.557Z,21.6
2023-04-09T00:02:54.938Z,21.6
2023-04-09T00:04:38.342Z,21.6
2023-04-09T00:06:21.737Z,21.6
2023-04-09T00:08:05.131Z,21.6
2023-04-09T00:13:14.370Z,21.5
2023-04-09T00:14:57.779Z,21.5
2023-04-09T00:16:41.152Z,21.5
2023-04-09T00:18:24.553Z,21.5
2023-04-09T00:20:07.954Z,21.5
2023-04-09T00:21:51.365Z,21.5
2023-04-09T00:23:34.770Z,21.5
2023-04-09T00:25:18.146Z,21.5
2023-04-09T00:27:01.550Z,21.5
2023-04-09T00:32:10.790Z,21.5
2023-04-09T00:33:54.187Z,21.5
2023-04-09T00:35:37.609Z,21.5
2023-04-09T00:37:20.974Z,21.5
2023-04-09T00:39:04.392Z,21.5
2023-04-09T00:40:47.772Z,21.5
2023-04-09T00:42:31.174Z,21.5
2023-04-09T00:44:14.563Z,21.5
2023-04-09T00:45:57.988Z,21.5
2023-04-09T00:49:24.432Z,21.5
2023-04-09T00:51:07.864Z,21.5
2023-04-09T00:52:51.220Z,21.5
2023-04-09T00:54:34.636Z,21.5
2023-04-09T00:56:18.022Z,21.5
2023-04-09T00:58:01.424Z,21.5
2023-04-09T00:59:44.827Z,21.5
2023-04-09T01:01:28.202Z,21.5
2023-04-09T01:03:11.610Z,21.5
2023-04-09T01:08:20.861Z,21.5
2023-04-09T01:10:04.276Z,21.5
2023-04-09T01:11:47.641Z,21.5
2023-04-09T01:13:31.038Z,21.5
2023-04-09T01:15:14.450Z,21.5
2023-04-09T01:16:57.834Z,21.5
2023-04-09T01:18:41.234Z,21.5
2023-04-09T01:20:24.628Z,21.5
2023-04-09T01:22:08.013Z,21.5
2023-04-09T01:27:17.263Z,21.5
2023-04-09T01:29:00.717Z,21.5
2023-04-09T01:30:44.055Z,21.5
2023-04-09T01:32:27.464Z,21.5
2023-04-09T01:34:10.855Z,21.5
2023-04-09T01:35:54.237Z,21.5
2023-04-09T01:37:37.655Z,21.5
2023-04-09T01:39:21.050Z,21.5
2023-04-09T01:41:04.461Z,21.5
2023-04-09T01:44:30.910Z,21.4
2023-04-09T01:46:14.310Z,21.4
2023-04-09T01:47:57.713Z,21.4
2023-04-09T01:49:41.117Z,21.5
2023-04-09T01:51:24.502Z,21.4
2023-04-09T01:53:07.926Z,21.4
2023-04-09T01:54:51.292Z,21.4
2023-04-09T01:56:34.688Z,21.4
2023-04-09T01:58:18.074Z,21.4
2023-04-09T02:00:01.804Z,21.4
2023-04-09T02:01:45.192Z,21.4
2023-04-09T02:03:28.575Z,21.4
2023-04-09T02:05:11.999Z,21.4
2023-04-09T02:06:55.389Z,21.4
2023-04-09T02:08:38.757Z,21.4
2023-04-09T02:10:22.158Z,21.4
2023-04-09T02:12:05.565Z,21.4
2023-04-09T02:13:48.997Z,21.4
2023-04-09T02:17:15.433Z,21.4
2023-04-09T02:18:58.829Z,21.4
2023-04-09T02:20:42.224Z,21.4
2023-04-09T02:22:25.635Z,21.4
2023-04-09T02:24:09.018Z,21.4
2023-04-09T02:25:52.394Z,21.4
2023-04-09T02:27:35.796Z,21.4
2023-04-09T02:29:19.204Z,21.4
2023-04-09T02:34:28.445Z,21.4
2023-04-09T02:36:11.850Z,21.4
2023-04-09T02:37:55.229Z,21.4
2023-04-09T02:39:38.635Z,21.4
2023-04-09T02:41:22.051Z,21.4
2023-04-09T02:43:05.427Z,21.4
2023-04-09T02:44:48.814Z,21.4
2023-04-09T02:46:32.219Z,21.4
2023-04-09T02:51:41.632Z,21.4
2023-04-09T02:53:24.863Z,21.4
2023-04-09T02:55:08.248Z,21.4
2023-04-09T02:56:51.655Z,21.4
2023-04-09T02:58:35.035Z,21.4
2023-04-09T03:00:18.447Z,21.4
2023-04-09T03:02:01.833Z,21.4
2023-04-09T03:03:45.255Z,21.4
2023-04-09T03:08:54.481Z,21.4
2023-04-09T03:10:37.867Z,21.4
2023-04-09T03:12:21.275Z,21.4
2023-04-09T03:14:04.664Z,21.4
2023-04-09T03:15:48.073Z,21.4
2023-04-09T03:17:31.460Z,21.4
2023-04-09T03:19:14.846Z,21.4
2023-04-09T03:20:58.258Z,21.4
2023-04-09T03:26:07.480Z,21.4
2023-04-09T03:27:50.880Z,21.4
2023-04-09T03:29:34.283Z,21.4
2023-04-09T03:31:17.666Z,21.4
2023-04-09T03:33:01.071Z,21.4
2023-04-09T03:34:44.486Z,21.4
2023-04-09T03:36:27.871Z,21.4
2023-04-09T03:38:11.264Z,21.3
2023-04-09T03:43:20.505Z,21.4
2023-04-09T03:45:03.893Z,21.3
2023-04-09T03:46:47.295Z,21.3
2023-04-09T03:48:30.698Z,21.3
2023-04-09T03:50:14.085Z,21.3
2023-04-09T03:51:57.484Z,21.3
2023-04-09T03:53:40.880Z,21.4
2023-04-09T03:55:24.288Z,21.4
2023-04-09T03:58:50.743Z,21.3
2023-04-09T04:00:34.135Z,21.3
2023-04-09T04:02:17.605Z,21.3
2023-04-09T04:04:00.943Z,21.3
2023-04-09T04:05:44.403Z,21.3
2023-04-09T04:07:27.719Z,21.3
2023-04-09T04:09:11.115Z,21.3
2023-04-09T04:10:54.520Z,21.3
2023-04-09T04:14:20.977Z,21.3
2023-04-09T04:16:04.530Z,21.3
2023-04-09T04:17:47.783Z,21.3
2023-04-09T04:19:31.170Z,21.3
2023-04-09T04:21:14.561Z,21.3
2023-04-09T04:22:57.975Z,21.3
2023-04-09T04:24:41.376Z,21.3
2023-04-09T04:26:24.765Z,21.3
2023-04-09T04:29:51.229Z,21.3
2023-04-09T04:31:34.631Z,21.3
2023-04-09T04:33:18.015Z,21.3
2023-04-09T04:35:01.419Z,21.3
2023-04-09T04:36:45.120Z,21.3
2023-04-09T04:38:28.207Z,21.3
2023-04-09T04:40:11.616Z,21.3
2023-04-09T04:41:55.004Z,21.3
2023-04-09T04:45:21.472Z,21.3
2023-04-09T04:47:04.890Z,21.3
2023-04-09T04:48:48.261Z,21.3
2023-04-09T04:50:31.659Z,21.3
2023-04-09T04:52:15.062Z,21.3
2023-04-09T04:53:58.455Z,21.3
2023-04-09T04:55:41.865Z,21.3
2023-04-09T04:57:25.249Z,21.3
2023-04-09T05:02:34.494Z,21.3
2023-04-09T05:04:17.912Z,21.3
2023-04-09T05:06:01.281Z,21.3
2023-04-09T05:07:44.672Z,21.3
2023-04-09T05:09:28.091Z,21.3
2023-04-09T05:11:11.462Z,21.3
2023-04-09T05:12:54.902Z,21.3
2023-04-09T05:14:38.271Z,21.3
2023-04-09T05:19:47.502Z,21.3
2023-04-09T05:21:30.889Z,21.3
2023-04-09T05:23:14.290Z,21.3
2023-04-09T05:24:57.689Z,21.3
2023-04-09T05:26:41.087Z,21.3
2023-04-09T05:28:24.486Z,21.3
2023-04-09T05:30:07.873Z,21.3
2023-04-09T05:31:51.268Z,21.3
2023-04-09T05:37:00.530Z,21.3
2023-04-09T05:38:43.894Z,21.3
2023-04-09T05:40:27.296Z,21.3
2023-04-09T05:42:10.702Z,21.3
2023-04-09T05:43:54.102Z,21.3
2023-04-09T05:45:37.499Z,21.3
2023-04-09T05:47:20.893Z,21.3
2023-04-09T05:49:04.301Z,21.3
2023-04-09T05:54:13.534Z,21.3
2023-04-09T05:55:56.925Z,21.3
2023-04-09T05:57:40.314Z,21.3
2023-04-09T05:59:23.712Z,21.3
2023-04-09T06:01:07.145Z,21.3
2023-04-09T06:02:50.512Z,21.3
2023-04-09T06:04:34.324Z,21.3
2023-04-09T06:06:17.314Z,21.3
2023-04-09T06:11:26.631Z,21.3
2023-04-09T06:13:09.948Z,21.3
2023-04-09T06:14:53.325Z,21.3
2023-04-09T06:16:36.726Z,21.3
2023-04-09T06:18:20.131Z,21.3
2023-04-09T06:20:03.538Z,21.3
2023-04-09T06:21:46.928Z,21.3
2023-04-09T06:23:30.324Z,21.3
2023-04-09T06:28:39.553Z,21.3
2023-04-09T06:30:22.944Z,21.3
2023-04-09T06:32:06.360Z,21.3
2023-04-09T06:33:49.757Z,21.3
2023-04-09T06:35:33.148Z,21.3
2023-04-09T06:37:16.544Z,21.3
2023-04-09T06:38:59.942Z,21.3
2023-04-09T06:40:43.338Z,21.3
2023-04-09T06:42:26.732Z,21.3
2023-04-09T06:45:53.202Z,21.3
2023-04-09T06:47:36.602Z,21.3
2023-04-09T06:49:19.991Z,21.3
2023-04-09T06:51:03.414Z,21.3
2023-04-09T06:52:46.828Z,21.3
2023-04-09T06:54:30.193Z,21.3
2023-04-09T06:56:13.618Z,21.3
2023-04-09T06:57:56.989Z,21.3
2023-04-09T07:03:06.211Z,21.3
2023-04-09T07:04:49.620Z,21.3
2023-04-09T07:06:33.062Z,21.3
2023-04-09T07:08:16.560Z,21.3
2023-04-09T07:09:59.882Z,21.3
2023-04-09T07:11:43.340Z,21.3
2023-04-09T07:13:26.765Z,21.3
2023-04-09T07:15:09.982Z,21.3
2023-04-09T07:20:19.244Z,21.3
2023-04-09T07:22:02.833Z,21.3
2023-04-09T07:23:46.163Z,21.3
2023-04-09T07:25:29.411Z,21.3
2023-04-09T07:27:12.993Z,21.3
2023-04-09T07:28:56.400Z,21.3
2023-04-09T07:30:39.731Z,21.3
2023-04-09T07:32:23.132Z,21.3
2023-04-09T07:34:06.574Z,21.3
2023-04-09T07:37:32.899Z,21.3
2023-04-09T07:39:16.254Z,21.3
2023-04-09T07:40:59.651Z,21.3
2023-04-09T07:42:43.091Z,21.3
2023-04-09T07:44:26.481Z,21.4
2023-04-09T07:46:09.848Z,21.3
2023-04-09T07:47:53.296Z,21.3
2023-04-09T07:49:36.810Z,21.3
2023-04-09T07:54:46.053Z,21.3
2023-04-09T07:56:29.439Z,21.3
2023-04-09T07:58:12.757Z,21.3
2023-04-09T07:59:56.213Z,21.3
2023-04-09T08:01:39.533Z,21.4
2023-04-09T08:03:22.957Z,21.4
2023-04-09T08:05:06.311Z,21.4
2023-04-09T08:06:49.715Z,21.4
2023-04-09T08:08:33.166Z,21.4
2023-04-09T08:13:42.511Z,21.5
2023-04-09T08:15:25.793Z,21.6
2023-04-09T08:17:09.281Z,21.6
2023-04-09T08:18:52.639Z,21.6
2023-04-09T08:20:36.111Z,21.7
2023-04-09T08:22:19.420Z,21.7
2023-04-09T08:24:02.865Z,21.7
2023-04-09T08:25:46.270Z,21.7
2023-04-09T08:27:29.648Z,21.7
2023-04-09T08:30:56.051Z,21.7
2023-04-09T08:32:39.490Z,21.8
2023-04-09T08:34:22.727Z,21.8
2023-04-09T08:36:06.289Z,21.8
2023-04-09T08:37:49.682Z,21.9
2023-04-09T08:39:33.141Z,21.9
2023-04-09T08:41:16.411Z,21.9
2023-04-09T08:42:59.891Z,21.9
2023-04-09T08:44:43.185Z,21.9
2023-04-09T08:48:09.701Z,21.9
2023-04-09T08:49:53.210Z,22
2023-04-09T08:51:36.361Z,22
2023-04-09T08:53:19.769Z,22
2023-04-09T08:55:03.160Z,22
2023-04-09T08:56:46.555Z,22
2023-04-09T08:58:30.109Z,22
2023-04-09T09:00:13.482Z,22
2023-04-09T09:05:22.793Z,22.1
2023-04-09T09:07:06.169Z,22.1
2023-04-09T09:08:49.529Z,22
2023-04-09T09:10:32.802Z,22
2023-04-09T09:12:16.362Z,22
2023-04-09T09:13:59.704Z,22.1
2023-04-09T09:15:43.205Z,22.1
2023-04-09T09:17:26.362Z,22.1
2023-04-09T09:22:35.782Z,22.1
2023-04-09T09:24:19.017Z,22.1
2023-04-09T09:26:02.581Z,22.1
2023-04-09T09:27:45.935Z,22.1
2023-04-09T09:29:29.232Z,22.1
2023-04-09T09:31:12.649Z,22.1
2023-04-09T09:32:56.150Z,22.1
2023-04-09T09:34:39.424Z,22.2
2023-04-09T09:36:22.950Z,22.2
2023-04-09T09:39:49.362Z,22.2
2023-04-09T09:41:32.832Z,22.2
2023-04-09T09:43:16.101Z,22.2
2023-04-09T09:44:59.435Z,22.2
2023-04-09T09:46:42.846Z,22.3
2023-04-09T09:48:26.229Z,22.3
2023-04-09T09:50:09.640Z,22.3
2023-04-09T09:51:53.049Z,22.3
2023-04-09T09:57:02.286Z,22.3
2023-04-09T09:58:45.697Z,22.4
2023-04-09T10:00:29.087Z,22.4
2023-04-09T10:02:12.469Z,22.4
2023-04-09T10:03:55.868Z,22.4
2023-04-09T10:05:50.261Z,22.4
2023-04-09T10:07:22.640Z,22.4
2023-04-09T10:09:06.042Z,22.4
2023-04-09T10:12:32.512Z,22.4
2023-04-09T10:14:15.908Z,22.4
2023-04-09T10:15:59.320Z,22.4
2023-04-09T10:17:42.707Z,22.4
2023-04-09T10:19:26.109Z,22.4
2023-04-09T10:21:09.505Z,22.4
2023-04-09T10:22:52.885Z,22.4
2023-04-09T10:24:36.278Z,22.4
2023-04-09T10:29:45.620Z,22.3
2023-04-09T10:31:29.020Z,22.3
2023-04-09T10:33:12.385Z,22.3
2023-04-09T10:34:55.786Z,22.3
2023-04-09T10:36:39.150Z,22.3
2023-04-09T10:38:22.591Z,22.3
2023-04-09T10:40:05.960Z,22.3
2023-04-09T10:41:49.398Z,22.3
2023-04-09T10:45:15.831Z,22.3
2023-04-09T10:46:59.240Z,22.3
2023-04-09T10:48:42.615Z,22.3
2023-04-09T10:50:26.030Z,22.3
2023-04-09T10:52:09.393Z,22.3
2023-04-09T10:53:52.799Z,22.3
2023-04-09T10:55:36.194Z,22.3
2023-04-09T10:57:19.582Z,22.3
2023-04-09T11:00:46.063Z,22.3
2023-04-09T11:02:29.447Z,22.3
2023-04-09T11:04:12.862Z,22.3
2023-04-09T11:05:56.239Z,22.3
2023-04-09T11:07:39.640Z,22.3
2023-04-09T11:09:23.051Z,22.3
2023-04-09T11:11:06.402Z,22.3
2023-04-09T11:12:49.797Z,22.4
2023-04-09T11:14:33.208Z,22.4
2023-04-09T11:17:59.682Z,22.4
2023-04-09T11:19:43.057Z,22.4
2023-04-09T11:21:26.469Z,22.3
2023-04-09T11:23:09.866Z,22.3
2023-04-09T11:24:53.257Z,22.3
2023-04-09T11:26:36.649Z,22.3
2023-04-09T11:28:20.053Z,22.3
2023-04-09T11:30:03.494Z,22.3
2023-04-09T11:31:46.849Z,22.3
2023-04-09T11:33:30.543Z,22.3
2023-04-09T11:35:13.945Z,22.4
2023-04-09T11:36:57.357Z,22.4
2023-04-09T11:38:40.759Z,22.4
2023-04-09T11:40:24.155Z,22.3
2023-04-09T11:42:07.530Z,22.3
2023-04-09T11:43:50.931Z,22.3
2023-04-09T11:45:34.337Z,22.3
2023-04-09T11:47:17.713Z,22.3
2023-04-09T11:49:01.424Z,22.3
2023-04-09T11:50:44.808Z,22.3
2023-04-09T11:52:28.230Z,22.3
2023-04-09T11:54:11.631Z,22.3
2023-04-09T11:55:55.021Z,22.3
2023-04-09T11:57:38.425Z,22.3
2023-04-09T11:59:21.808Z,22.3
2023-04-09T12:01:05.193Z,22.3
2023-04-09T12:02:48.599Z,22.3
2023-04-09T12:06:15.062Z,22.2
2023-04-09T12:07:58.634Z,22.2
2023-04-09T12:09:41.867Z,22.3
2023-04-09T12:11:25.272Z,22.2
2023-04-09T12:13:08.721Z,22.2
2023-04-09T12:14:52.044Z,22.2
2023-04-09T12:16:35.450Z,22.2
2023-04-09T12:18:18.856Z,22.2
2023-04-09T12:23:28.097Z,22.2
2023-04-09T12:25:11.508Z,22.2
2023-04-09T12:26:54.878Z,22.3
2023-04-09T12:28:38.274Z,22.3
2023-04-09T12:30:21.688Z,22.3
2023-04-09T12:32:05.066Z,22.3
2023-04-09T12:33:48.473Z,22.3
2023-04-09T12:35:31.853Z,22.3
2023-04-09T12:40:41.100Z,22.3
2023-04-09T12:42:24.498Z,22.3
2023-04-09T12:44:07.886Z,22.3
2023-04-09T12:45:51.278Z,22.3
2023-04-09T12:47:34.691Z,22.3
2023-04-09T12:49:18.084Z,22.3
2023-04-09T12:51:01.494Z,22.3
2023-04-09T12:52:44.863Z,22.3
2023-04-09T12:54:28.268Z,22.3
2023-04-09T12:57:54.738Z,22.3
2023-04-09T12:59:38.134Z,22.3
2023-04-09T13:01:21.532Z,22.3
2023-04-09T13:03:04.937Z,22.4
2023-04-09T13:04:48.333Z,22.4
2023-04-09T13:06:31.721Z,22.4
2023-04-09T13:08:15.126Z,22.4
2023-04-09T13:09:58.520Z,22.4
2023-04-09T13:11:41.907Z,22.4
2023-04-09T13:15:08.373Z,22.5
2023-04-09T13:16:59.672Z,22.5
2023-04-09T13:18:35.188Z,22.5
2023-04-09T13:20:18.576Z,22.5
2023-04-09T13:22:01.977Z,22.5
2023-04-09T13:23:45.382Z,22.5
2023-04-09T13:25:28.765Z,22.5
2023-04-09T13:27:12.225Z,22.5
2023-04-09T13:30:38.631Z,22.6
2023-04-09T13:32:22.037Z,22.6
2023-04-09T13:34:05.431Z,22.6
2023-04-09T13:35:48.817Z,22.6
2023-04-09T13:37:32.221Z,22.6
2023-04-09T13:39:15.608Z,22.6
2023-04-09T13:40:59.025Z,22.6
2023-04-09T13:42:42.416Z,22.6
2023-04-09T13:47:51.648Z,22.5
2023-04-09T13:49:35.053Z,22.5
2023-04-09T13:51:18.445Z,22.5
2023-04-09T13:53:01.832Z,22.6
2023-04-09T13:54:45.241Z,22.6
2023-04-09T13:56:28.636Z,22.6
2023-04-09T13:58:12.033Z,22.6
2023-04-09T13:59:55.425Z,22.6
2023-04-09T14:03:21.908Z,22.5
2023-04-09T14:05:05.291Z,22.5
2023-04-09T14:06:48.677Z,22.5
2023-04-09T14:08:32.090Z,22.5
2023-04-09T14:10:15.487Z,22.5
2023-04-09T14:11:58.881Z,22.5
2023-04-09T14:13:42.266Z,22.5
2023-04-09T14:15:25.670Z,22.5
2023-04-09T14:20:34.909Z,22.5
2023-04-09T14:22:18.309Z,22.5
2023-04-09T14:24:01.719Z,22.4
2023-04-09T14:25:45.105Z,22.4
2023-04-09T14:27:28.496Z,22.4
2023-04-09T14:29:11.903Z,22.4
2023-04-09T14:32:38.670Z,22.4
2023-04-09T14:36:05.163Z,22.3
2023-04-09T14:37:48.558Z,22.3
2023-04-09T14:39:31.961Z,22.2
2023-04-09T14:41:15.350Z,22
2023-04-09T14:42:58.753Z,21.8
2023-04-09T14:44:42.143Z,21.8
2023-04-09T14:46:25.533Z,21.8
2023-04-09T14:48:08.966Z,21.8
2023-04-09T14:53:18.180Z,21.8
2023-04-09T14:55:01.588Z,21.8
2023-04-09T14:56:44.977Z,21.8
2023-04-09T14:58:28.368Z,21.8
2023-04-09T15:00:11.811Z,21.9
2023-04-09T15:01:55.151Z,21.9
2023-04-09T15:03:38.571Z,21.9
2023-04-09T15:05:21.962Z,21.9
2023-04-09T15:10:31.192Z,22
2023-04-09T15:12:14.586Z,22.1
2023-04-09T15:13:57.992Z,22.1
2023-04-09T15:15:41.380Z,22.1
2023-04-09T15:17:24.784Z,22.1
2023-04-09T15:19:08.169Z,22.1
2023-04-09T15:20:51.573Z,22.1
2023-04-09T15:22:34.964Z,22.2
2023-04-09T15:27:44.221Z,22.3
2023-04-09T15:29:27.614Z,22.3
2023-04-09T15:31:11.001Z,22.3
2023-04-09T15:32:54.396Z,22.4
2023-04-09T15:34:37.802Z,22.4
2023-04-09T15:36:21.198Z,22.5
2023-04-09T15:38:04.585Z,22.5
2023-04-09T15:39:47.989Z,22.5
2023-04-09T15:41:31.382Z,22.5
2023-04-09T15:43:15.102Z,22.6
2023-04-09T15:44:58.483Z,22.6
2023-04-09T15:46:41.863Z,22.6
2023-04-09T15:48:25.305Z,22.6
2023-04-09T15:50:08.664Z,22.6
2023-04-09T15:51:52.077Z,22.6
2023-04-09T15:53:35.464Z,22.7
2023-04-09T15:55:18.871Z,22.7
2023-04-09T15:57:02.328Z,22.7
2023-04-09T15:58:45.961Z,22.7
2023-04-09T16:00:29.354Z,22.7
2023-04-09T16:02:12.758Z,22.7
2023-04-09T16:03:56.146Z,22.7
2023-04-09T16:05:39.545Z,22.7
2023-04-09T16:07:22.939Z,22.7
2023-04-09T16:09:06.334Z,22.7
2023-04-09T16:10:49.721Z,22.7
2023-04-09T16:15:58.975Z,22.7
2023-04-09T16:17:42.362Z,22.7
2023-04-09T16:19:25.811Z,22.7
2023-04-09T16:21:09.165Z,22.7
2023-04-09T16:22:52.562Z,22.7
2023-04-09T16:24:35.948Z,22.8
2023-04-09T16:26:19.348Z,22.8
2023-04-09T16:28:02.754Z,22.8
2023-04-09T16:33:11.974Z,22.8
2023-04-09T16:34:55.381Z,22.8
2023-04-09T16:36:39.051Z,22.8
2023-04-09T16:38:22.226Z,22.8
2023-04-09T16:40:05.574Z,22.8
2023-04-09T16:41:48.960Z,22.8
2023-04-09T16:43:32.361Z,22.9
2023-04-09T16:45:15.761Z,22.9
2023-04-09T16:46:59.452Z,22.9
2023-04-09T16:48:42.874Z,22.9
2023-04-09T16:50:26.252Z,22.9
2023-04-09T16:52:09.661Z,22.9
2023-04-09T16:53:53.039Z,22.9
2023-04-09T16:55:36.428Z,22.9
2023-04-09T16:57:19.833Z,22.9
2023-04-09T16:59:03.233Z,22.9
2023-04-09T17:02:29.738Z,22.9
2023-04-09T17:04:13.100Z,22.9
2023-04-09T17:05:56.496Z,22.8
2023-04-09T17:07:39.914Z,22.8
2023-04-09T17:09:23.298Z,22.8
2023-04-09T17:11:06.693Z,22.8
2023-04-09T17:12:50.087Z,22.7
2023-04-09T17:14:33.484Z,22.7
2023-04-09T17:19:42.735Z,22.6
2023-04-09T17:21:26.210Z,22.6
2023-04-09T17:23:09.498Z,22.6
2023-04-09T17:24:52.909Z,22.6
2023-04-09T17:26:36.307Z,22.5
2023-04-09T17:28:19.694Z,22.5
2023-04-09T17:30:03.086Z,22.5
2023-04-09T17:35:12.962Z,22.5
2023-04-09T17:36:56.441Z,22.5
2023-04-09T17:38:39.766Z,22.4
2023-04-09T17:40:23.163Z,22.4
2023-04-09T17:43:49.940Z,22.4
2023-04-09T17:45:33.331Z,22.4
2023-04-09T17:47:16.733Z,22.4
2023-04-09T17:52:25.979Z,22.3
2023-04-09T17:54:09.381Z,22.4
2023-04-09T17:55:52.779Z,22.3
2023-04-09T17:57:36.161Z,22.3
2023-04-09T17:59:19.814Z,22.3
2023-04-09T18:01:03.018Z,22.3
2023-04-09T18:02:46.362Z,22.3
2023-04-09T18:04:29.785Z,22.3
2023-04-09T18:07:56.244Z,22.3
2023-04-09T18:09:39.617Z,22.3
2023-04-09T18:11:23.021Z,22.3
2023-04-09T18:13:06.424Z,22.2
2023-04-09T18:14:49.811Z,22.2
2023-04-09T18:16:33.219Z,22.2
2023-04-09T18:18:16.689Z,22.2
2023-04-09T18:20:00.028Z,22.2
2023-04-09T18:25:09.297Z,22.2
2023-04-09T18:26:52.643Z,22.2
2023-04-09T18:28:36.082Z,22.2
2023-04-09T18:30:19.424Z,22.2
2023-04-09T18:32:02.830Z,22.2
2023-04-09T18:33:46.225Z,22.2
2023-04-09T18:35:29.627Z,22.2
2023-04-09T18:37:13.034Z,22.2
2023-04-09T18:38:56.411Z,22.2
2023-04-09T18:40:40.128Z,22.2
2023-04-09T18:42:23.541Z,22.2
2023-04-09T18:44:06.933Z,22.1
2023-04-09T18:45:50.329Z,22.1
2023-04-09T18:47:33.700Z,22.1
2023-04-09T18:49:17.125Z,22.1
2023-04-09T18:51:00.506Z,22.1
2023-04-09T18:52:43.898Z,22.1
2023-04-09T18:57:53.190Z,22.1
2023-04-09T18:59:36.622Z,22.1
2023-04-09T19:01:19.945Z,22.1
2023-04-09T19:03:03.459Z,22.1
2023-04-09T19:04:46.724Z,22.1
2023-04-09T19:06:30.124Z,22.1
2023-04-09T19:08:13.525Z,22.1
2023-04-09T19:09:56.955Z,22.1
2023-04-09T19:13:23.415Z,22.1
2023-04-09T19:15:06.804Z,22.1
2023-04-09T19:16:50.195Z,22.1
2023-04-09T19:18:33.601Z,22.1
2023-04-09T19:20:16.994Z,22.1
2023-04-09T19:22:00.384Z,22.1
2023-04-09T19:23:43.776Z,22.1
2023-04-09T19:25:27.190Z,22.1
2023-04-09T19:30:36.419Z,22.1
2023-04-09T19:32:19.827Z,22.1
2023-04-09T19:34:03.240Z,22
2023-04-09T19:35:46.626Z,22
2023-04-09T19:37:30.042Z,22
2023-04-09T19:39:13.422Z,22
2023-04-09T19:40:56.806Z,22
2023-04-09T19:42:40.225Z,22
2023-04-09T19:47:49.430Z,22
2023-04-09T19:49:32.828Z,22
2023-04-09T19:51:16.230Z,22
2023-04-09T19:52:59.627Z,22
2023-04-09T19:54:43.038Z,22
2023-04-09T19:56:26.460Z,22
2023-04-09T19:58:09.826Z,22
2023-04-09T19:59:53.233Z,22
2023-04-09T20:03:19.683Z,22
2023-04-09T20:05:03.088Z,22
2023-04-09T20:06:46.474Z,22
2023-04-09T20:08:29.875Z,22
2023-04-09T20:10:13.256Z,22
2023-04-09T20:11:56.669Z,22
2023-04-09T20:13:40.064Z,22
2023-04-09T20:15:23.454Z,22
2023-04-09T20:18:49.943Z,22
2023-04-09T20:20:33.335Z,22
2023-04-09T20:22:16.752Z,22
2023-04-09T20:24:00.130Z,22
2023-04-09T20:25:43.578Z,22
2023-04-09T20:27:26.943Z,22
2023-04-09T20:29:10.366Z,22
2023-04-09T20:30:53.737Z,22
2023-04-09T20:36:02.968Z,22
2023-04-09T20:37:46.353Z,22
2023-04-09T20:39:29.796Z,22
2023-04-09T20:41:13.180Z,22
2023-04-09T20:42:56.563Z,22
2023-04-09T20:44:39.951Z,22
2023-04-09T20:46:23.348Z,22
2023-04-09T20:48:06.744Z,22
2023-04-09T20:53:15.983Z,22
2023-04-09T20:54:59.371Z,22
2023-04-09T20:56:42.790Z,22
2023-04-09T20:58:26.174Z,22
2023-04-09T21:00:09.583Z,22
2023-04-09T21:01:52.952Z,22
2023-04-09T21:03:36.357Z,22
2023-04-09T21:05:19.754Z,22
2023-04-09T21:08:46.251Z,22
2023-04-09T21:10:29.642Z,22
2023-04-09T21:12:13.006Z,22
2023-04-09T21:13:56.455Z,22
2023-04-09T21:15:39.828Z,22
2023-04-09T21:17:23.218Z,22
2023-04-09T21:19:06.600Z,22
2023-04-09T21:20:50.017Z,22
2023-04-09T21:25:59.245Z,22
2023-04-09T21:27:42.660Z,22
2023-04-09T21:29:26.065Z,22
2023-04-09T21:31:09.451Z,22
2023-04-09T21:32:52.836Z,22
2023-04-09T21:34:36.235Z,22
2023-04-09T21:36:19.647Z,22
2023-04-09T21:38:03.038Z,22
2023-04-09T21:39:46.432Z,21.9
2023-04-09T21:41:30.140Z,21.9
2023-04-09T21:43:13.541Z,22
2023-04-09T21:44:56.949Z,21.9
2023-04-09T21:46:40.327Z,21.9
2023-04-09T21:48:23.721Z,21.9
2023-04-09T21:50:07.121Z,21.9
2023-04-09T21:51:50.522Z,21.9
2023-04-09T21:53:33.908Z,22
2023-04-09T21:55:17.327Z,21.9
2023-04-09T21:58:43.785Z,21.9
2023-04-09T22:00:27.189Z,21.9
2023-04-09T22:02:10.569Z,21.9
2023-04-09T22:03:53.986Z,21.9
2023-04-09T22:05:37.405Z,21.9
2023-04-09T22:07:20.786Z,21.9
2023-04-09T22:09:04.178Z,21.9
2023-04-09T22:10:47.570Z,21.9
2023-04-09T22:15:56.810Z,21.9
2023-04-09T22:17:40.207Z,21.9
2023-04-09T22:19:23.604Z,21.9
2023-04-09T22:21:07.005Z,21.9
2023-04-09T22:22:50.432Z,21.9
2023-04-09T22:24:33.800Z,21.9
2023-04-09T22:26:17.207Z,21.9
2023-04-09T22:28:00.587Z,21.9
2023-04-09T22:33:09.832Z,21.9
2023-04-09T22:34:53.251Z,21.9
2023-04-09T22:36:36.622Z,21.9
2023-04-09T22:38:20.040Z,21.9
2023-04-09T22:40:03.409Z,21.9
2023-04-09T22:41:46.812Z,21.9
2023-04-09T22:43:30.224Z,21.9
2023-04-09T22:45:13.609Z,21.8
2023-04-09T22:46:57.002Z,21.9
2023-04-09T22:50:23.501Z,21.9
2023-04-09T22:52:06.871Z,21.8
2023-04-09T22:53:50.270Z,21.8
2023-04-09T22:55:33.666Z,21.8
2023-04-09T22:57:17.045Z,21.8
2023-04-09T22:59:00.449Z,21.8
2023-04-09T23:00:43.856Z,21.8
2023-04-09T23:02:27.241Z,21.8
2023-04-09T23:04:10.652Z,21.8
2023-04-09T23:05:54.349Z,21.8
2023-04-09T23:07:37.740Z,21.8
2023-04-09T23:09:21.141Z,21.8
2023-04-09T23:11:04.584Z,21.8
2023-04-09T23:12:47.929Z,21.8
2023-04-09T23:14:31.326Z,21.8
2023-04-09T23:16:14.736Z,21.8
2023-04-09T23:17:58.150Z,21.8
2023-04-09T23:19:41.514Z,21.8
2023-04-09T23:23:08.001Z,21.8
2023-04-09T23:24:51.387Z,21.8
2023-04-09T23:26:34.787Z,21.8
2023-04-09T23:28:18.192Z,21.8
2023-04-09T23:30:01.572Z,21.7
2023-04-09T23:31:44.957Z,21.7
2023-04-09T23:33:28.385Z,21.7
2023-04-09T23:35:11.804Z,21.7
2023-04-09T23:36:55.166Z,21.7
2023-04-09T23:42:04.417Z,21.7
2023-04-09T23:43:47.802Z,21.8
2023-04-09T23:45:31.202Z,21.7
2023-04-09T23:47:14.586Z,21.7
2023-04-09T23:48:57.990Z,21.7
2023-04-09T23:50:41.402Z,21.7
2023-04-09T23:52:24.787Z,21.8
2023-04-09T23:54:08.178Z,21.7
2023-04-09T23:55:51.573Z,21.8
